createdAt,value
2023-03-17T00:01:09.799Z,71.22
2023-03-17T00:03:38.676Z,71.03
2023-03-17T00:06:05.833Z,71.21
2023-03-17T00:08:34.787Z,71.33
2023-03-17T00:11:01.893Z,71.58
2023-03-17T00:13:28.934Z,71.57
2023-03-17T00:15:59.665Z,71.42
2023-03-17T00:18:26.247Z,71.75
2023-03-17T00:20:52.774Z,71.64
2023-03-17T00:23:21.879Z,71.57
2023-03-17T00:25:49.097Z,71.50
2023-03-17T00:28:24.836Z,71.62
2023-03-17T00:30:57.456Z,71.51
2023-03-17T00:33:26.951Z,71.79
2023-03-17T00:35:54.266Z,71.59
2023-03-17T00:38:21.896Z,71.71
2023-03-17T00:40:48.814Z,71.72
2023-03-17T00:43:15.349Z,71.97
2023-03-17T00:45:42.509Z,71.82
2023-03-17T00:48:15.006Z,71.81
2023-03-17T00:50:42.585Z,71.85
2023-03-17T00:53:15.389Z,72.06
2023-03-17T00:55:43.513Z,72.04
2023-03-17T00:58:14.895Z,72.23
2023-03-17T01:00:41.480Z,72.30
2023-03-17T01:03:11.463Z,72.21
2023-03-17T01:05:38.669Z,72.33
2023-03-17T01:08:05.943Z,72.20
2023-03-17T01:10:32.667Z,72.09
2023-03-17T01:12:59.622Z,71.91
2023-03-17T01:15:30.026Z,71.75
2023-03-17T06:04:07.867Z,66.13
2023-03-17T06:06:34.766Z,65.78
2023-03-17T06:09:01.598Z,64.94
2023-03-17T06:11:28.329Z,64.68
2023-03-17T06:13:54.856Z,64.26
2023-03-17T06:16:21.444Z,63.65
2023-03-17T06:18:48.663Z,63.38
2023-03-17T06:21:15.677Z,63.58
2023-03-17T06:23:42.300Z,63.33
2023-03-17T06:26:08.993Z,63.54
2023-03-17T06:28:35.819Z,63.33
2023-03-17T06:31:04.135Z,63.32
2023-03-17T06:33:32.683Z,63.13
2023-03-17T06:36:00.536Z,62.01
2023-03-17T06:38:27.552Z,61.76
2023-03-17T06:40:54.038Z,61.10
2023-03-17T06:43:22.156Z,61.09
2023-03-17T06:45:48.940Z,61.51
2023-03-17T06:48:15.457Z,61.49
2023-03-17T06:50:42.052Z,61.31
2023-03-17T06:53:08.564Z,61.64
2023-03-17T06:55:35.191Z,61.68
2023-03-17T06:58:03.096Z,61.50
2023-03-17T07:00:30.403Z,61.36
2023-03-17T07:02:57.763Z,61.36
2023-03-17T07:05:24.381Z,60.97
2023-03-17T07:07:50.951Z,60.78
2023-03-17T07:10:18.104Z,60.85
2023-03-17T07:12:45.312Z,61.07
2023-03-17T07:15:12.629Z,61.34
2023-03-17T07:17:39.335Z,61.14
2023-03-17T07:20:06.532Z,60.26
2023-03-17T07:22:33.156Z,59.97
2023-03-17T07:24:59.976Z,60.09
2023-03-17T07:27:26.663Z,59.13
2023-03-17T07:29:53.455Z,59.02
2023-03-17T07:32:20.185Z,57.75
2023-03-17T07:34:47.032Z,55.72
2023-03-17T07:37:13.637Z,53.86
2023-03-17T07:39:40.935Z,44.34
2023-03-17T07:42:08.723Z,35.22
2023-03-17T07:44:36.365Z,30.63
2023-03-17T07:47:07.638Z,27.62
2023-03-17T07:49:41.281Z,27.58
2023-03-17T07:52:10.487Z,26.34
2023-03-17T07:54:37.691Z,26.69
2023-03-17T07:57:05.079Z,27.08
2023-03-17T07:59:31.952Z,25.71
2023-03-17T08:02:00.239Z,25.38
2023-03-17T08:04:27.683Z,24.89
2023-03-17T08:06:54.632Z,25.48
2023-03-17T08:09:22.340Z,26.51
2023-03-17T08:11:49.543Z,27.20
2023-03-17T08:14:16.373Z,25.76
2023-03-17T08:16:42.981Z,25.28
2023-03-17T08:19:11.048Z,24.88
2023-03-17T08:21:38.087Z,24.02
2023-03-17T08:24:05.322Z,24.04
2023-03-17T08:26:33.880Z,23.09
2023-03-17T08:29:01.473Z,24.01
2023-03-17T08:31:31.393Z,25.58
2023-03-17T08:33:58.674Z,27.03
2023-03-17T08:36:26.225Z,28.44
2023-03-17T08:38:53.031Z,30.67
2023-03-17T08:41:22.941Z,32.26
2023-03-17T08:43:51.094Z,33.73
2023-03-17T08:46:27.211Z,34.06
2023-03-17T08:48:56.394Z,33.93
2023-03-17T08:51:25.445Z,32.88
2023-03-17T08:53:53.253Z,33.96
2023-03-17T08:56:20.037Z,34.23
2023-03-17T08:58:48.566Z,34.70
2023-03-17T09:01:15.846Z,34.80
2023-03-17T09:03:43.189Z,34.68
2023-03-17T09:06:12.469Z,34.93
2023-03-17T09:08:44.669Z,34.40
2023-03-17T09:11:15.213Z,33.62
2023-03-17T09:13:42.088Z,33.67
2023-03-17T09:16:09.065Z,33.75
2023-03-17T09:18:36.145Z,34.92
2023-03-17T09:21:03.654Z,34.96
2023-03-17T09:23:30.960Z,34.37
2023-03-17T09:25:57.682Z,34.33
2023-03-17T09:28:24.810Z,34.51
2023-03-17T09:30:51.713Z,34.68
2023-03-17T09:33:18.686Z,34.86
2023-03-17T09:35:45.544Z,34.24
2023-03-17T09:38:12.904Z,33.88
2023-03-17T09:40:51.440Z,34.25
2023-03-17T09:43:29.047Z,33.60
2023-03-17T09:45:56.140Z,33.14
2023-03-17T09:48:26.102Z,33.33
2023-03-17T09:50:55.729Z,33.66
2023-03-17T09:53:28.565Z,33.91
2023-03-17T09:55:58.579Z,33.36
2023-03-17T09:58:31.289Z,33.56
2023-03-17T10:00:58.801Z,33.45
2023-03-17T10:03:25.832Z,33.92
2023-03-17T10:05:52.814Z,33.82
2023-03-17T10:08:31.701Z,34.15
2023-03-17T10:10:58.690Z,33.48
2023-03-17T10:13:47.230Z,33.65
2023-03-17T10:16:18.768Z,33.46
2023-03-17T10:18:52.182Z,33.12
2023-03-17T10:21:24.292Z,33.19
2023-03-17T10:23:51.229Z,33.33
2023-03-17T10:26:40.054Z,33.21
2023-03-17T10:29:17.584Z,32.64
2023-03-17T10:31:44.872Z,33.19
2023-03-17T10:34:20.451Z,32.94
2023-03-17T10:36:53.434Z,32.96
2023-03-17T10:39:23.075Z,33.29
2023-03-17T10:42:00.341Z,33.01
2023-03-17T10:44:56.309Z,33.89
2023-03-17T10:47:38.270Z,34.25
2023-03-17T10:50:23.055Z,34.72
2023-03-17T10:52:58.023Z,34.06
2023-03-17T10:55:29.336Z,34.20
2023-03-17T10:58:16.786Z,34.08
2023-03-17T11:00:58.455Z,34.07
2023-03-17T11:03:28.630Z,33.41
2023-03-17T11:05:56.791Z,33.33
2023-03-17T11:08:24.051Z,34.06
2023-03-17T11:10:56.705Z,34.63
2023-03-17T11:13:28.966Z,34.59
2023-03-17T11:16:24.802Z,34.50
2023-03-17T11:18:55.122Z,33.39
2023-03-17T11:21:52.506Z,33.28
2023-03-17T11:24:23.009Z,33.02
2023-03-17T11:27:00.057Z,32.70
2023-03-17T11:29:57.682Z,32.87
2023-03-17T11:32:44.527Z,32.89
2023-03-17T11:35:14.190Z,32.49
2023-03-17T11:37:49.035Z,32.59
2023-03-17T11:40:20.648Z,33.17
2023-03-17T11:42:59.365Z,32.56
2023-03-17T11:46:20.166Z,32.77
2023-03-17T11:49:24.991Z,32.77
2023-03-17T11:51:59.224Z,32.53
2023-03-17T11:54:41.474Z,32.44
2023-03-17T11:57:32.943Z,33.01
2023-03-17T12:00:07.141Z,33.70
2023-03-17T12:02:39.442Z,32.73
2023-03-17T12:05:10.339Z,32.47
2023-03-17T12:07:42.376Z,32.47
2023-03-17T12:10:22.597Z,32.54
2023-03-17T12:13:27.090Z,33.40
2023-03-17T12:15:58.482Z,33.46
2023-03-17T12:18:39.823Z,33.69
2023-03-17T12:21:12.066Z,33.20
2023-03-17T12:24:04.388Z,33.45
2023-03-17T12:26:35.587Z,33.64
2023-03-17T12:29:15.390Z,32.44
2023-03-17T12:31:47.160Z,33.01
2023-03-17T12:34:20.450Z,32.95
2023-03-17T12:36:49.042Z,33.06
2023-03-17T12:39:21.908Z,33.12
2023-03-17T12:42:01.709Z,32.78
2023-03-17T12:45:19.797Z,32.75
2023-03-17T12:48:42.304Z,33.18
2023-03-17T12:51:24.968Z,34.41
2023-03-17T12:53:52.515Z,34.23
2023-03-17T12:56:30.909Z,33.81
2023-03-17T12:59:06.719Z,33.72
2023-03-17T13:01:40.746Z,34.06
2023-03-17T13:04:13.166Z,33.75
2023-03-17T13:06:44.997Z,33.47
2023-03-17T13:09:38.507Z,33.38
2023-03-17T13:12:06.934Z,33.36
2023-03-17T13:14:44.723Z,33.31
2023-03-17T13:17:17.594Z,33.67
2023-03-17T13:20:11.378Z,32.86
2023-03-17T13:22:40.885Z,32.72
2023-03-17T13:25:35.390Z,32.63
2023-03-17T13:28:13.865Z,32.08
2023-03-17T13:30:40.488Z,32.29
2023-03-17T13:33:09.792Z,32.30
2023-03-17T13:35:41.814Z,32.31
2023-03-17T13:38:27.199Z,32.13
2023-03-17T13:41:22.584Z,31.81
2023-03-17T13:44:15.710Z,32.09
2023-03-17T13:46:49.109Z,32.23
2023-03-17T13:49:22.682Z,32.25
2023-03-17T13:52:00.256Z,31.94
2023-03-17T13:54:28.077Z,32.07
2023-03-17T13:56:56.382Z,31.73
2023-03-17T14:00:02.016Z,31.50
2023-03-17T14:02:33.929Z,31.63
2023-03-17T14:05:04.639Z,31.52
2023-03-17T14:07:38.858Z,31.26
2023-03-17T14:10:05.753Z,31.56
2023-03-17T14:12:39.698Z,31.58
2023-03-17T14:15:15.462Z,31.83
2023-03-17T14:17:50.584Z,31.68
2023-03-17T14:20:17.121Z,31.26
2023-03-17T14:22:46.049Z,31.28
2023-03-17T14:25:18.412Z,31.52
2023-03-17T14:27:48.469Z,31.28
2023-03-17T14:30:34.357Z,31.14
2023-03-17T14:33:04.698Z,31.31
2023-03-17T14:35:39.084Z,31.74
2023-03-17T14:38:22.105Z,31.57
2023-03-17T14:40:49.923Z,31.85
2023-03-17T14:43:16.817Z,32.68
2023-03-17T14:45:48.535Z,32.99
2023-03-17T14:48:18.261Z,32.56
2023-03-17T14:51:20.968Z,32.18
2023-03-17T14:53:48.800Z,32.33
2023-03-17T14:56:15.692Z,32.57
2023-03-17T14:58:44.017Z,32.75
2023-03-17T15:01:39.725Z,33.36
2023-03-17T15:04:06.592Z,33.30
2023-03-17T15:06:37.547Z,33.23
2023-03-17T15:09:17.627Z,33.65
2023-03-17T15:11:44.794Z,33.26
2023-03-17T15:14:35.508Z,32.93
2023-03-17T15:17:04.403Z,33.10
2023-03-17T15:19:49.200Z,32.68
2023-03-17T15:22:26.025Z,33.05
2023-03-17T15:25:01.348Z,33.39
2023-03-17T15:27:29.420Z,33.28
2023-03-17T15:29:56.474Z,33.52
2023-03-17T15:32:25.753Z,33.36
2023-03-17T15:34:54.716Z,33.41
2023-03-17T15:37:27.008Z,33.95
2023-03-17T15:39:55.212Z,33.55
2023-03-17T15:42:25.332Z,33.88
2023-03-17T15:44:52.528Z,33.78
2023-03-17T15:47:21.161Z,33.85
2023-03-17T15:49:49.704Z,34.11
2023-03-17T15:52:27.349Z,34.11
2023-03-17T15:54:56.222Z,33.94
2023-03-17T15:57:23.085Z,34.15
2023-03-17T15:59:49.546Z,34.21
2023-03-17T16:02:27.478Z,34.37
2023-03-17T16:04:55.154Z,34.54
2023-03-17T16:07:22.355Z,34.43
2023-03-17T16:09:48.806Z,34.12
2023-03-17T16:12:15.894Z,34.33
2023-03-17T16:14:43.056Z,34.19
2023-03-17T16:17:28.716Z,34.79
2023-03-17T16:19:56.223Z,35.16
2023-03-17T16:22:28.869Z,35.03
2023-03-17T16:24:55.439Z,35.14
2023-03-17T16:27:22.362Z,35.09
2023-03-17T16:29:49.025Z,34.87
2023-03-17T16:32:15.660Z,35.01
2023-03-17T16:34:42.586Z,34.98
2023-03-17T16:37:14.985Z,35.43
2023-03-17T16:39:42.473Z,35.33
2023-03-17T16:42:24.416Z,35.81
2023-03-17T16:44:51.100Z,36.25
2023-03-17T16:47:17.784Z,35.77
2023-03-17T16:49:44.417Z,36.23
2023-03-17T16:52:12.112Z,36.41
2023-03-17T16:54:38.775Z,36.30
2023-03-17T16:57:07.772Z,36.50
2023-03-17T16:59:34.708Z,36.30
2023-03-17T17:02:01.975Z,36.56
2023-03-17T17:04:28.749Z,36.50
2023-03-17T17:06:56.752Z,36.66
2023-03-17T17:09:23.342Z,36.74
2023-03-17T17:11:49.917Z,37.05
2023-03-17T17:14:16.513Z,36.82
2023-03-17T17:16:43.179Z,36.84
2023-03-17T17:19:16.228Z,37.26
2023-03-17T17:21:43.637Z,37.00
2023-03-17T17:24:12.234Z,37.04
2023-03-17T17:26:38.924Z,36.81
2023-03-17T17:29:05.772Z,36.71
2023-03-17T17:31:32.313Z,36.95
2023-03-17T17:33:58.805Z,37.12
2023-03-17T17:36:26.134Z,37.04
2023-03-17T17:38:52.668Z,37.40
2023-03-17T17:41:21.558Z,38.01
2023-03-17T17:43:48.925Z,38.10
2023-03-17T17:46:21.505Z,38.26
2023-03-17T17:48:49.058Z,38.32
2023-03-17T17:51:15.921Z,38.54
2023-03-17T17:53:42.408Z,38.79
2023-03-17T17:56:14.105Z,38.73
2023-03-17T17:58:40.600Z,38.96
2023-03-17T18:01:07.298Z,38.73
2023-03-17T18:03:34.023Z,38.92
2023-03-17T18:06:01.115Z,39.32
2023-03-17T18:08:27.751Z,39.06
2023-03-17T18:10:55.877Z,38.99
2023-03-17T18:13:22.433Z,39.57
2023-03-17T18:15:49.434Z,39.52
2023-03-17T18:18:16.019Z,39.54
2023-03-17T18:20:42.613Z,39.93
2023-03-17T18:23:09.263Z,40.26
2023-03-17T18:25:37.066Z,39.86
2023-03-17T18:28:03.702Z,39.97
2023-03-17T18:30:31.908Z,39.51
2023-03-17T18:33:04.082Z,40.11
2023-03-17T18:35:30.921Z,40.32
2023-03-17T18:37:57.949Z,39.93
2023-03-17T18:40:25.640Z,40.09
2023-03-17T18:42:52.271Z,40.16
2023-03-17T18:45:18.816Z,40.37
2023-03-17T18:47:45.303Z,40.32
2023-03-17T18:50:13.668Z,40.56
2023-03-17T18:52:41.311Z,40.51
2023-03-17T18:55:08.922Z,40.63
2023-03-17T18:57:35.719Z,40.82
2023-03-17T19:00:02.306Z,40.77
2023-03-17T19:02:29.090Z,41.07
2023-03-17T19:04:55.988Z,40.92
2023-03-17T19:07:22.580Z,41.18
2023-03-17T19:09:49.286Z,40.75
2023-03-17T19:12:15.776Z,41.20
2023-03-17T19:14:42.620Z,41.10
2023-03-17T19:17:09.247Z,40.66
2023-03-17T19:19:36.711Z,41.37
2023-03-17T19:22:03.973Z,41.52
2023-03-17T19:24:31.593Z,41.26
2023-03-17T19:26:58.213Z,41.20
2023-03-17T19:29:24.810Z,41.24
2023-03-17T19:31:51.282Z,41.01
2023-03-17T19:34:17.824Z,41.46
2023-03-17T19:36:47.274Z,41.54
2023-03-17T19:39:14.564Z,41.70
2023-03-17T19:41:41.065Z,41.33
2023-03-17T19:44:07.722Z,41.71
2023-03-17T19:46:36.534Z,42.02
2023-03-17T19:49:04.719Z,41.99
2023-03-17T19:51:31.919Z,41.67
2023-03-17T19:53:58.576Z,41.38
2023-03-17T19:56:25.118Z,41.59
2023-03-17T19:58:52.044Z,41.69
2023-03-17T20:01:18.782Z,41.81
2023-03-17T20:03:46.195Z,42.32
2023-03-17T20:06:13.768Z,42.09
2023-03-17T20:08:42.735Z,42.02
2023-03-17T20:11:11.533Z,42.31
2023-03-17T20:13:38.878Z,42.46
2023-03-17T20:16:07.061Z,42.48
2023-03-17T20:18:34.038Z,42.38
2023-03-17T20:21:05.359Z,42.01
2023-03-17T20:23:32.197Z,42.60
2023-03-17T20:25:58.915Z,42.50
2023-03-17T20:28:25.499Z,42.83
2023-03-17T20:30:52.460Z,42.25
2023-03-17T20:33:19.026Z,42.09
2023-03-17T20:35:48.933Z,42.40
2023-03-17T20:38:15.484Z,42.78
2023-03-17T20:40:42.305Z,42.89
2023-03-17T20:43:09.459Z,42.79
2023-03-17T20:45:37.006Z,42.92
2023-03-17T20:48:05.025Z,42.86
2023-03-17T20:50:32.889Z,42.68
2023-03-17T20:52:59.846Z,42.81
2023-03-17T20:55:26.346Z,42.74
2023-03-17T20:57:52.901Z,42.51
2023-03-17T21:00:21.237Z,43.10
2023-03-17T21:02:50.630Z,42.89
2023-03-17T21:05:23.106Z,42.82
2023-03-17T21:07:50.616Z,42.84
2023-03-17T21:10:17.953Z,42.50
2023-03-17T21:12:44.902Z,42.81
2023-03-17T21:15:12.961Z,42.74
2023-03-17T21:17:39.958Z,43.07
2023-03-17T21:20:07.470Z,42.90
2023-03-17T21:22:36.158Z,43.05
2023-03-17T21:25:04.101Z,42.66
2023-03-17T21:27:30.678Z,42.50
2023-03-17T21:29:57.334Z,42.58
2023-03-17T21:32:24.498Z,43.07
2023-03-17T21:34:51.436Z,43.10
2023-03-17T21:37:18.819Z,43.10
2023-03-17T21:39:45.940Z,43.29
2023-03-17T21:42:12.781Z,43.15
2023-03-17T21:44:40.657Z,42.70
2023-03-17T21:47:07.713Z,42.78
2023-03-17T21:49:34.312Z,42.84
2023-03-17T21:52:01.421Z,42.79
2023-03-17T21:54:28.442Z,42.81
2023-03-17T21:56:54.945Z,43.08
2023-03-17T21:59:21.541Z,43.02
2023-03-17T22:01:52.111Z,42.74
2023-03-17T22:04:18.872Z,42.63
2023-03-17T22:06:45.523Z,42.82
2023-03-17T22:09:15.337Z,42.66
2023-03-17T22:11:43.036Z,42.62
2023-03-17T22:14:12.027Z,42.62
2023-03-17T22:16:38.577Z,42.53
2023-03-17T22:19:05.111Z,42.09
2023-03-17T22:21:31.818Z,42.28
2023-03-17T22:23:58.567Z,42.70
2023-03-17T22:26:25.108Z,42.60
2023-03-17T22:28:51.681Z,42.49
2023-03-17T22:31:23.475Z,42.06
2023-03-17T22:33:52.621Z,41.88
2023-03-17T22:36:19.244Z,42.35
2023-03-17T22:38:47.068Z,42.17
2023-03-17T22:41:16.578Z,42.06
2023-03-17T22:43:43.443Z,41.96
2023-03-17T22:46:11.014Z,42.29
2023-03-17T22:48:37.611Z,41.86
2023-03-17T22:51:06.391Z,41.78
2023-03-17T22:53:33.886Z,42.43
2023-03-17T22:56:00.780Z,42.30
2023-03-17T22:58:27.706Z,41.85
2023-03-17T23:00:55.343Z,41.75
2023-03-17T23:03:22.961Z,41.97
2023-03-17T23:05:51.221Z,41.73
2023-03-17T23:08:19.159Z,41.66
2023-03-17T23:10:48.798Z,41.81
2023-03-17T23:13:16.038Z,42.00
2023-03-17T23:15:42.606Z,41.78
2023-03-17T23:18:10.305Z,41.69
2023-03-17T23:20:39.903Z,41.33
2023-03-17T23:23:08.391Z,40.89
2023-03-17T23:25:36.525Z,41.34
2023-03-17T23:28:03.106Z,41.19
2023-03-17T23:30:30.872Z,41.68
2023-03-17T23:32:58.102Z,41.64
2023-03-17T23:35:25.253Z,41.60
2023-03-17T23:37:52.019Z,41.11
2023-03-17T23:40:18.614Z,41.60
2023-03-17T23:42:48.054Z,41.36
2023-03-17T23:45:18.386Z,41.28
2023-03-17T23:47:47.074Z,41.30
2023-03-17T23:50:14.593Z,41.41
2023-03-17T23:52:42.413Z,41.75
2023-03-17T23:55:11.824Z,41.32
2023-03-17T23:57:38.961Z,41.41
